Time;durP1;ratioP1;P1;durP2;ratioP2;P2;SDS_P1;SDS_P2;PMS_P1;PMS_P2;Temp;Humidity;BMP_temperature;BMP_pressure;BME280_temperature;BME280_humidity;BME280_pressure;Samples;Min_cycle;Max_cycle;Signal;HPM_P1;HPM_P2
2022/04/21 00:00:47;;;;;;;14.45;4.43;;;;;;;13.11;36.10;100748.44;5009033;28;20132;-73
2022/04/21 00:03:14;;;;;;;10.25;4.13;;;;;;;12.97;36.43;100748.31;5012259;28;20486;-75
2022/04/21 00:05:41;;;;;;;8.75;3.50;;;;;;;13.29;35.87;100758.94;4993992;28;20138;-73
2022/04/21 00:08:08;;;;;;;16.58;5.00;;;;;;;13.08;36.27;100748.78;4993746;28;20133;-73
2022/04/21 00:10:34;;;;;;;15.35;4.43;;;;;;;13.20;36.14;100743.81;4989164;28;20105;-74
2022/04/21 00:13:01;;;;;;;12.93;3.60;;;;;;;13.27;36.09;100744.78;5003456;28;20046;-74
2022/04/21 00:15:28;;;;;;;13.13;3.50;;;;;;;12.90;36.82;100752.72;5013245;28;20045;-74
2022/04/21 00:17:54;;;;;;;16.80;4.43;;;;;;;12.79;37.26;100753.94;5007781;28;20490;-73
2022/04/21 00:20:21;;;;;;;10.88;3.75;;;;;;;12.54;37.40;100756.69;5013805;28;20137;-73
2022/04/21 00:25:32;;;;;;;12.07;4.80;;;;;;;12.28;38.02;100756.91;5012846;28;20072;-74
2022/04/21 00:27:59;;;;;;;12.98;4.63;;;;;;;12.55;37.87;100752.13;5012607;28;20109;-73
2022/04/21 00:30:26;;;;;;;14.32;4.22;;;;;;;12.62;37.60;100753.13;4999689;28;20109;-72
2022/04/21 00:32:53;;;;;;;10.65;4.65;;;;;;;12.66;37.54;100751.78;4993530;28;20046;-75
2022/04/21 00:35:24;;;;;;;15.80;4.43;;;;;;;12.78;37.15;100753.09;4993235;28;20069;-73
2022/04/21 00:37:53;;;;;;;8.52;4.13;;;;;;;12.64;37.68;100756.50;4994437;28;20070;-73
2022/04/21 00:40:22;;;;;;;14.07;4.93;;;;;;;12.32;38.13;100760.94;5002833;28;20081;-74
2022/04/21 00:42:48;;;;;;;15.07;5.50;;;;;;;12.32;38.33;100755.56;4999673;28;20066;-74
2022/04/21 00:45:15;;;;;;;11.52;4.40;;;;;;;12.44;38.16;100747.13;5012392;28;21765;-74
2022/04/21 00:47:46;;;;;;;15.55;4.53;;;;;;;12.29;38.47;100744.31;4999829;28;20214;-73
2022/04/21 00:50:16;;;;;;;13.25;4.63;;;;;;;12.60;37.72;100741.72;4991938;28;20092;-73
2022/04/21 00:52:44;;;;;;;14.45;4.95;;;;;;;12.02;39.25;100737.44;4992569;28;20092;-74
2022/04/21 00:55:11;;;;;;;21.52;4.80;;;;;;;11.86;39.42;100739.13;4992431;28;20129;-73
2022/04/21 00:57:40;;;;;;;14.07;4.53;;;;;;;12.06;39.15;100736.91;4987111;28;20077;-74
2022/04/21 01:00:07;;;;;;;10.85;4.70;;;;;;;12.11;39.06;100737.28;5000714;28;20550;-74
2022/04/21 01:02:46;;;;;;;15.02;5.18;;;;;;;12.26;38.87;100742.78;5012014;28;20505;-72
2022/04/21 01:08:59;;;;;;;15.15;4.28;;;;;;;12.39;38.38;100735.03;5014166;28;20049;-74
2022/04/21 01:11:25;;;;;;;13.18;3.90;;;;;;;12.46;38.46;100740.56;5012712;28;20376;-73
2022/04/21 01:13:52;;;;;;;16.48;4.65;;;;;;;12.66;38.06;100735.63;5012226;28;20448;-72
2022/04/21 01:16:18;;;;;;;18.05;4.88;;;;;;;12.51;38.27;100731.97;5013059;28;20052;-73
2022/04/21 01:18:45;;;;;;;16.80;4.28;;;;;;;12.86;37.56;100726.13;4999991;28;20046;-72
2022/04/21 01:21:11;;;;;;;12.52;4.38;;;;;;;12.47;38.37;100719.88;4994915;28;20046;-71
2022/04/21 01:23:38;;;;;;;13.68;4.20;;;;;;;12.61;38.01;100713.78;4992954;28;20137;-71
2022/04/21 01:26:05;;;;;;;14.20;4.75;;;;;;;12.66;37.90;100719.50;4992589;28;20459;-71
2022/04/21 01:28:32;;;;;;;17.92;4.53;;;;;;;12.88;37.55;100713.34;4992931;28;20070;-71
2022/04/21 01:30:58;;;;;;;15.48;4.22;;;;;;;12.54;38.47;100715.47;4983903;28;20466;-71
2022/04/21 01:33:25;;;;;;;17.70;4.43;;;;;;;12.50;38.18;100711.47;4992531;28;20376;-71
2022/04/21 01:35:51;;;;;;;15.07;4.20;;;;;;;12.87;37.54;100711.69;4991479;28;20547;-71
2022/04/21 01:41:09;;;;;;;14.23;4.45;;;;;;;12.68;37.97;100716.59;4995249;28;20069;-71
2022/04/21 01:43:36;;;;;;;16.52;4.32;;;;;;;12.59;38.07;100718.47;4992146;28;20129;-71
2022/04/21 01:46:02;;;;;;;12.25;5.30;;;;;;;12.31;38.98;100720.75;4992936;28;20053;-71
2022/04/21 01:48:29;;;;;;;16.33;5.00;;;;;;;12.17;38.96;100722.28;4996253;28;20509;-71
2022/04/21 01:50:56;;;;;;;13.23;4.50;;;;;;;12.03;39.80;100725.66;4991616;28;20534;-71
2022/04/21 01:53:22;;;;;;;15.20;5.10;;;;;;;11.93;39.74;100724.00;4992324;28;20487;-71
2022/04/21 01:55:48;;;;;;;19.13;5.00;;;;;;;11.65;40.53;100720.75;4992104;28;20097;-71
2022/04/21 01:58:15;;;;;;;20.02;5.43;;;;;;;11.57;40.82;100731.53;4991467;28;20074;-71
2022/04/21 02:00:41;;;;;;;16.88;5.00;;;;;;;11.86;40.48;100720.31;4992159;28;20490;-71
2022/04/21 02:03:08;;;;;;;21.40;5.53;;;;;;;11.99;39.94;100727.84;4991850;28;20108;-71
2022/04/21 02:05:35;;;;;;;15.05;5.03;;;;;;;11.90;40.37;100720.81;4991216;28;20053;-71
2022/04/21 02:08:03;;;;;;;15.18;4.97;;;;;;;12.04;40.06;100719.31;4991183;28;20139;-71
2022/04/21 02:10:30;;;;;;;24.17;5.57;;;;;;;11.95;40.06;100709.56;4988954;28;20093;-71
2022/04/21 02:12:57;;;;;;;16.60;5.43;;;;;;;12.56;38.92;100708.09;4995305;28;20477;-71
2022/04/21 02:15:24;;;;;;;17.35;4.57;;;;;;;12.74;38.57;100691.69;4991674;28;20494;-71
2022/04/21 02:17:50;;;;;;;13.27;4.60;;;;;;;12.51;39.14;100692.44;4991708;28;20126;-71
2022/04/21 02:20:18;;;;;;;14.13;4.50;;;;;;;12.46;39.22;100694.00;4990223;28;20498;-71
2022/04/21 02:22:45;;;;;;;17.33;5.35;;;;;;;12.31;39.64;100688.47;4991528;28;20134;-75
2022/04/21 02:25:16;;;;;;;17.65;4.60;;;;;;;12.39;39.62;100696.53;4991670;28;20046;-75
2022/04/21 02:27:46;;;;;;;10.02;4.50;;;;;;;11.69;40.89;100697.97;4991455;28;20098;-73
2022/04/21 02:30:13;;;;;;;17.05;4.45;;;;;;;12.08;40.25;100696.44;4991157;28;20129;-74
2022/04/21 02:32:40;;;;;;;13.98;4.43;;;;;;;12.03;40.25;100696.94;4995020;28;20077;-74
2022/04/21 02:35:08;;;;;;;11.82;5.13;;;;;;;12.12;40.27;100692.38;4988510;28;20162;-74
2022/04/21 02:37:43;;;;;;;13.45;4.85;;;;;;;12.13;40.07;100689.50;4991994;28;20121;-75
2022/04/21 02:40:11;;;;;;;23.00;5.10;;;;;;;12.10;40.37;100691.72;4991355;28;20540;-74
2022/04/21 02:42:38;;;;;;;16.27;4.80;;;;;;;12.10;40.17;100681.78;4991328;28;20125;-74
2022/04/21 02:45:09;;;;;;;16.85;5.00;;;;;;;12.23;39.83;100686.63;4992399;28;20114;-74
2022/04/21 02:47:36;;;;;;;24.63;5.70;;;;;;;12.34;39.60;100682.75;4991642;28;20066;-75
2022/04/21 02:50:05;;;;;;;13.80;4.53;;;;;;;12.32;39.89;100685.63;4989940;28;20538;-74
2022/04/21 02:52:35;;;;;;;17.15;4.82;;;;;;;12.62;39.22;100659.75;5000412;28;20050;-73
2022/04/21 02:57:46;;;;;;;16.42;4.80;;;;;;;12.44;39.46;100669.09;4989904;28;20077;-75
2022/04/21 03:00:13;;;;;;;24.50;6.38;;;;;;;11.97;40.51;100669.88;4992198;28;20061;-74
2022/04/21 03:02:39;;;;;;;23.08;5.22;;;;;;;12.02;40.47;100668.38;4991923;28;20046;-75
2022/04/21 03:05:07;;;;;;;21.10;5.88;;;;;;;11.99;40.44;100670.56;4991223;28;20398;-74
2022/04/21 03:07:33;;;;;;;16.40;5.97;;;;;;;12.16;40.03;100672.19;4991055;28;20066;-74
2022/04/21 03:10:00;;;;;;;17.08;5.65;;;;;;;11.91;40.69;100685.69;4990704;28;20505;-73
2022/04/21 03:12:28;;;;;;;26.35;6.38;;;;;;;11.72;41.05;100686.03;4991070;28;20140;-74
2022/04/21 03:14:55;;;;;;;16.90;6.30;;;;;;;11.52;41.59;100688.22;4991240;28;20054;-74
2022/04/21 03:17:22;;;;;;;20.13;6.35;;;;;;;11.48;42.05;100691.38;4994492;28;20425;-75
2022/04/21 03:19:49;;;;;;;21.77;6.80;;;;;;;11.68;41.36;100679.31;4997638;28;20064;-73
2022/04/21 03:25:06;;;;;;;17.98;6.40;;;;;;;11.70;41.24;100677.31;4995420;28;20137;-74
2022/04/21 03:27:34;;;;;;;19.73;6.30;;;;;;;11.77;41.34;100672.94;4995500;28;20406;-75
2022/04/21 03:30:02;;;;;;;23.50;6.10;;;;;;;12.08;40.82;100677.63;4994785;28;20057;-75
2022/04/21 03:32:29;;;;;;;21.10;6.47;;;;;;;11.35;42.08;100676.59;4995343;28;20204;-74
2022/04/21 03:34:55;;;;;;;20.77;6.22;;;;;;;11.50;41.88;100674.09;4995687;28;20468;-74
2022/04/21 03:37:22;;;;;;;18.27;5.65;;;;;;;11.34;42.23;100674.06;4994514;28;20088;-75
2022/04/21 03:39:49;;;;;;;18.33;6.07;;;;;;;11.94;41.07;100673.78;4993997;28;20073;-74
2022/04/21 03:42:24;;;;;;;16.00;6.22;;;;;;;11.90;40.96;100675.13;4993970;28;20129;-75
2022/04/21 03:44:51;;;;;;;20.02;6.65;;;;;;;11.55;41.69;100687.00;4994018;28;20100;-75
2022/04/21 03:47:18;;;;;;;22.38;6.60;;;;;;;11.86;41.31;100692.56;4994112;28;20446;-75
2022/04/21 03:49:45;;;;;;;19.05;6.88;;;;;;;11.76;42.02;100692.78;4984944;28;20057;-74
2022/04/21 03:52:11;;;;;;;18.60;6.47;;;;;;;11.53;41.96;100689.03;4994078;28;20086;-74
2022/04/21 03:54:39;;;;;;;21.48;6.97;;;;;;;11.77;41.52;100694.44;4993583;28;20101;-75
2022/04/21 03:57:08;;;;;;;17.88;6.28;;;;;;;11.67;41.96;100691.09;4993052;28;20133;-75
2022/04/21 03:59:35;;;;;;;24.58;6.57;;;;;;;10.94;43.38;100698.00;4993004;28;20462;-75
2022/04/21 04:02:04;;;;;;;17.92;6.50;;;;;;;11.27;42.72;100695.38;4993612;28;20050;-75
2022/04/21 04:04:32;;;;;;;15.57;5.88;;;;;;;11.58;42.33;100692.88;4994465;28;20133;-75
2022/04/21 04:12:31;;;;;;;18.45;5.85;;;;;;;10.93;43.83;100700.84;5009055;28;20075;-74
2022/04/21 04:14:59;;;;;;;19.17;6.00;;;;;;;11.51;42.47;100701.78;5010660;28;20447;-74
2022/04/21 04:17:30;;;;;;;13.90;5.63;;;;;;;10.96;43.71;100706.75;5006862;28;20054;-74
2022/04/21 04:19:56;;;;;;;19.63;6.28;;;;;;;11.44;42.58;100701.63;5013379;28;20041;-74
2022/04/21 04:22:23;;;;;;;18.63;6.10;;;;;;;11.67;42.21;100704.53;5007355;28;20467;-74
2022/04/21 04:24:53;;;;;;;19.30;6.63;;;;;;;10.97;43.49;100704.91;5012396;28;20475;-74
2022/04/21 04:27:24;;;;;;;12.77;4.77;;;;;;;10.92;43.95;100708.03;5012526;28;20073;-74
2022/04/21 04:29:50;;;;;;;18.05;6.15;;;;;;;11.14;43.55;100711.16;5011561;28;20069;-74
2022/04/21 04:32:17;;;;;;;15.30;5.93;;;;;;;11.28;43.31;100712.34;5011887;28;20053;-75
2022/04/21 04:34:44;;;;;;;17.70;5.90;;;;;;;10.93;43.96;100711.59;5006367;28;20049;-74
2022/04/21 04:37:10;;;;;;;20.90;5.72;;;;;;;10.81;44.56;100718.25;4995464;28;20547;-74
2022/04/21 04:39:37;;;;;;;21.80;6.38;;;;;;;11.05;44.03;100714.81;5013662;28;20092;-74
2022/04/21 04:42:16;;;;;;;16.83;5.85;;;;;;;11.08;43.82;100717.16;5005573;28;20078;-74
2022/04/21 04:44:47;;;;;;;17.00;6.07;;;;;;;11.24;43.54;100714.53;5013308;28;20120;-75
2022/04/21 04:47:13;;;;;;;14.10;5.43;;;;;;;11.57;42.93;100723.47;5013848;28;20041;-74
2022/04/21 04:49:40;;;;;;;17.02;5.57;;;;;;;11.63;43.34;100721.97;5012527;28;20124;-74
2022/04/21 04:52:07;;;;;;;17.92;6.10;;;;;;;11.20;44.12;100721.22;5011817;28;20069;-75
2022/04/21 04:54:33;;;;;;;16.10;6.25;;;;;;;11.25;44.24;100732.31;5011418;28;20064;-75
2022/04/21 04:57:00;;;;;;;26.98;6.43;;;;;;;11.59;43.62;100726.00;5007680;28;20473;-75
2022/04/21 04:59:29;;;;;;;23.20;7.20;;;;;;;11.65;43.56;100726.13;5017601;28;20446;-75
2022/04/21 05:01:57;;;;;;;29.98;6.80;;;;;;;11.76;43.46;100726.84;5010911;28;20050;-75
2022/04/21 05:04:24;;;;;;;15.38;6.00;;;;;;;11.42;44.07;100735.88;5011808;28;20129;-74
2022/04/21 05:06:55;;;;;;;22.92;6.93;;;;;;;11.04;44.87;100737.28;5012153;28;20061;-74
2022/04/21 05:09:23;;;;;;;24.98;6.95;;;;;;;10.68;46.06;100737.47;5011013;28;20457;-73
2022/04/21 05:11:52;;;;;;;24.52;6.38;;;;;;;11.51;44.26;100739.41;5010795;28;20077;-74
2022/04/21 05:14:21;;;;;;;19.02;6.20;;;;;;;11.26;44.64;100742.03;5012008;28;20061;-73
2022/04/21 05:16:47;;;;;;;15.73;6.53;;;;;;;11.36;44.42;100740.06;4997172;28;20137;-73
2022/04/21 05:19:16;;;;;;;21.50;6.05;;;;;;;11.68;43.85;100736.59;4987810;28;20379;-75
2022/04/21 05:21:44;;;;;;;17.27;6.78;;;;;;;11.88;43.36;100736.28;4992637;28;20046;-73
2022/04/21 05:24:11;;;;;;;19.00;5.97;;;;;;;11.83;43.36;100736.78;4991726;28;20126;-74
2022/04/21 05:26:38;;;;;;;24.27;7.28;;;;;;;11.75;43.70;100752.88;4992157;28;20145;-74
2022/04/21 05:30:55;;;;;;;22.15;6.80;;;;;;;12.02;43.02;100743.66;4991904;28;20125;-74
2022/04/21 05:31:58;;;;;;;20.98;6.05;;;;;;;11.83;43.37;100747.53;4992245;28;20059;-74
2022/04/21 05:34:27;;;;;;;18.83;6.28;;;;;;;11.85;43.22;100748.19;4991898;28;20095;-75
2022/04/21 05:36:54;;;;;;;16.80;5.72;;;;;;;11.97;43.09;100750.53;4992123;28;20062;-74
2022/04/21 05:39:21;;;;;;;17.17;6.40;;;;;;;11.46;44.17;100739.91;4992052;28;20129;-75
2022/04/21 05:41:48;;;;;;;19.10;6.30;;;;;;;11.78;43.58;100736.44;4992322;28;20070;-74
2022/04/21 05:44:15;;;;;;;21.83;6.32;;;;;;;11.53;44.10;100742.78;4990897;28;20173;-74
2022/04/21 05:46:41;;;;;;;17.95;6.50;;;;;;;11.72;44.03;100747.00;4992158;28;20077;-74
2022/04/21 05:49:08;;;;;;;18.88;6.40;;;;;;;11.53;44.33;100740.94;4991429;28;20136;-74
2022/04/21 05:51:35;;;;;;;19.50;6.57;;;;;;;11.87;43.68;100730.06;4985808;28;20065;-75
2022/04/21 05:54:04;;;;;;;24.10;6.90;;;;;;;11.71;44.11;100735.44;4992218;28;20069;-75
2022/04/21 05:56:32;;;;;;;19.10;7.15;;;;;;;11.69;44.16;100730.22;4992461;28;20073;-75
2022/04/21 05:58:58;;;;;;;23.23;6.97;;;;;;;11.71;44.16;100730.06;4991584;28;20133;-76
2022/04/21 06:01:25;;;;;;;17.67;6.20;;;;;;;11.78;43.99;100719.47;4992005;28;20069;-76
2022/04/21 06:03:52;;;;;;;18.70;6.97;;;;;;;11.84;44.10;100724.19;4992252;28;20112;-76
2022/04/21 06:06:19;;;;;;;21.92;7.80;;;;;;;11.75;44.25;100723.31;4993311;28;20463;-76
2022/04/21 06:08:45;;;;;;;22.90;7.18;;;;;;;11.62;44.28;100718.44;4992178;28;20073;-77
2022/04/21 06:11:14;;;;;;;22.25;7.60;;;;;;;12.11;43.50;100723.81;4992816;28;20050;-76
2022/04/21 06:13:42;;;;;;;19.08;7.57;;;;;;;11.63;44.38;100713.91;4991950;28;20469;-76
2022/04/21 06:16:09;;;;;;;17.40;7.50;;;;;;;11.61;44.29;100713.22;4992573;28;20505;-76
2022/04/21 06:18:36;;;;;;;21.30;7.43;;;;;;;11.75;44.09;100717.94;4992071;28;20453;-75
2022/04/21 06:21:04;;;;;;;23.00;6.63;;;;;;;11.92;43.82;100711.56;4992189;28;20317;-75
2022/04/21 06:23:31;;;;;;;31.67;8.18;;;;;;;12.04;43.51;100708.53;4991747;28;20114;-76
2022/04/21 06:26:03;;;;;;;20.42;7.07;;;;;;;11.96;43.56;100709.38;4991173;28;20125;-76
2022/04/21 06:28:29;;;;;;;19.13;7.80;;;;;;;12.08;43.15;100704.50;4992515;28;20074;-75
2022/04/21 06:30:56;;;;;;;17.58;7.72;;;;;;;12.12;43.02;100711.22;4992583;28;20126;-76
2022/04/21 06:33:23;;;;;;;24.45;8.52;;;;;;;11.70;44.09;100706.88;4992707;28;20058;-75
2022/04/21 06:35:49;;;;;;;16.23;7.72;;;;;;;11.70;43.94;100701.50;4992250;28;20454;-75
2022/04/21 06:38:16;;;;;;;21.10;7.75;;;;;;;11.90;43.57;100697.47;4991817;28;20039;-75
2022/04/21 06:40:42;;;;;;;17.45;7.05;;;;;;;12.13;43.08;100697.59;4992938;28;20100;-76
2022/04/21 06:48:42;;;;;;;29.02;8.02;;;;;;;12.55;42.21;100704.53;4991692;28;20043;-76
2022/04/21 06:51:09;;;;;;;16.45;7.00;;;;;;;12.48;42.60;100710.78;4991645;28;20053;-76
2022/04/21 06:53:35;;;;;;;18.42;6.22;;;;;;;12.59;41.97;100703.19;4991687;28;20137;-76
2022/04/21 06:56:02;;;;;;;19.73;6.90;;;;;;;12.57;41.99;100715.13;4999060;28;20066;-76
2022/04/21 06:58:29;;;;;;;16.05;6.20;;;;;;;12.69;41.45;100719.09;4993668;28;20133;-76
2022/04/21 07:00:55;;;;;;;14.48;6.20;;;;;;;11.84;43.22;100718.81;4994594;28;20441;-76
2022/04/21 07:03:22;;;;;;;18.38;6.85;;;;;;;12.34;42.51;100720.41;4994191;28;20081;-76
2022/04/21 07:05:51;;;;;;;19.98;6.00;;;;;;;11.57;44.09;100728.00;4995816;28;20384;-78
2022/04/21 07:08:18;;;;;;;18.58;6.22;;;;;;;12.32;42.55;100728.66;4995665;28;20410;-79
2022/04/21 07:10:45;;;;;;;23.08;5.95;;;;;;;12.21;42.53;100737.09;4997461;28;20114;-77
2022/04/21 07:13:12;;;;;;;18.65;5.57;;;;;;;12.58;42.07;100730.25;4996309;28;20078;-78
2022/04/21 07:15:40;;;;;;;18.58;6.85;;;;;;;12.68;41.73;100736.28;4998370;28;20046;-78
2022/04/21 07:18:08;;;;;;;20.20;6.68;;;;;;;12.22;42.66;100733.38;4997735;28;20058;-78
2022/04/21 07:20:35;;;;;;;18.35;6.13;;;;;;;11.85;43.33;100737.44;4996741;28;20046;-78
2022/04/21 07:23:02;;;;;;;18.48;6.45;;;;;;;11.86;43.35;100733.75;4997727;28;20450;-78
2022/04/21 07:25:28;;;;;;;18.90;6.65;;;;;;;12.79;41.71;100732.41;4994059;28;20096;-78
2022/04/21 07:27:55;;;;;;;19.23;6.55;;;;;;;12.56;41.89;100740.38;5004702;28;20066;-78
2022/04/21 07:30:22;;;;;;;17.10;6.28;;;;;;;12.98;41.01;100745.47;4997830;28;20046;-78
2022/04/21 07:32:48;;;;;;;18.92;6.15;;;;;;;12.37;41.89;100744.28;4996799;28;20046;-77
2022/04/21 07:35:17;;;;;;;13.45;6.30;;;;;;;12.75;41.64;100752.63;4997517;28;20074;-77
2022/04/21 07:37:44;;;;;;;18.45;6.25;;;;;;;12.92;40.91;100739.94;4990709;28;20092;-78
2022/04/21 07:40:11;;;;;;;17.38;6.40;;;;;;;12.57;41.79;100753.66;5007235;28;20046;-77
2022/04/21 07:42:38;;;;;;;16.23;5.78;;;;;;;11.96;43.17;100747.00;4997069;28;20074;-77
2022/04/21 07:45:06;;;;;;;15.75;5.38;;;;;;;12.05;43.21;100747.88;4994963;28;20050;-77
2022/04/21 07:47:32;;;;;;;15.02;6.35;;;;;;;11.45;44.79;100749.81;4999412;28;20108;-78
2022/04/21 07:49:59;;;;;;;21.60;6.70;;;;;;;11.51;44.97;100744.78;5006882;28;20077;-77
2022/04/21 07:55:15;;;;;;;16.17;6.47;;;;;;;12.10;43.53;100742.81;5016909;28;20478;-78
2022/04/21 07:57:43;;;;;;;25.55;6.88;;;;;;;11.64;44.72;100751.34;5015837;28;20546;-78
2022/04/21 08:00:12;;;;;;;23.83;6.63;;;;;;;11.47;45.22;100755.00;5013050;28;20551;-78
2022/04/21 08:02:40;;;;;;;15.02;6.40;;;;;;;11.20;45.76;100746.22;5015552;28;20144;-78
2022/04/21 08:05:09;;;;;;;18.75;6.32;;;;;;;12.19;43.55;100759.78;5010072;28;20371;-79
2022/04/21 08:07:36;;;;;;;18.80;7.05;;;;;;;12.27;43.13;100752.53;5016166;28;20092;-78
2022/04/21 08:10:04;;;;;;;17.60;6.80;;;;;;;12.24;43.27;100752.88;5016300;28;20438;-78
2022/04/21 08:12:41;;;;;;;19.23;6.18;;;;;;;12.33;43.35;100759.91;5016817;28;20073;-78
2022/04/21 08:15:09;;;;;;;17.63;7.22;;;;;;;12.11;43.44;100758.78;5016625;28;20046;-78
2022/04/21 08:17:36;;;;;;;19.17;6.20;;;;;;;11.79;44.29;100754.22;5017489;28;20072;-78
2022/04/21 08:20:05;;;;;;;17.83;6.80;;;;;;;12.50;43.10;100754.50;5017573;28;20045;-78
2022/04/21 08:22:31;;;;;;;17.35;6.82;;;;;;;12.29;43.43;100761.28;5016139;28;20422;-78
2022/04/21 08:33:57;;;;;;;23.65;6.60;;;;;;;11.74;45.18;100771.88;4997452;28;20048;-78
2022/04/21 08:36:25;;;;;;;20.63;7.03;;;;;;;12.03;44.84;100780.28;4997935;28;20042;-78
2022/04/21 08:38:51;;;;;;;21.42;7.93;;;;;;;11.77;46.14;100782.31;4990277;28;20061;-78
2022/04/21 08:41:18;;;;;;;16.95;6.97;;;;;;;11.57;47.03;100776.34;4996751;28;20047;-78
2022/04/21 08:43:46;;;;;;;21.60;8.00;;;;;;;11.57;47.38;100776.34;4995998;28;20104;-79
2022/04/21 08:46:20;;;;;;;20.23;8.25;;;;;;;11.48;47.71;100778.19;4996916;28;20544;-78
2022/04/21 08:48:51;;;;;;;20.02;7.82;;;;;;;11.76;46.78;100773.41;5001093;28;20476;-78
2022/04/21 08:51:21;;;;;;;18.30;8.15;;;;;;;12.30;45.83;100778.25;4996132;28;20073;-78
2022/04/21 08:53:49;;;;;;;14.13;7.63;;;;;;;12.98;44.61;100771.56;4997266;28;20438;-78
2022/04/21 08:56:15;;;;;;;14.82;7.85;;;;;;;11.83;47.30;100774.41;4995663;28;20078;-78
2022/04/21 08:58:42;;;;;;;26.63;8.05;;;;;;;11.84;47.58;100768.03;4996379;28;20483;-78
2022/04/21 09:01:08;;;;;;;16.67;7.57;;;;;;;12.84;45.14;100770.44;4995165;28;20046;-78
2022/04/21 09:03:36;;;;;;;19.52;8.30;;;;;;;12.67;45.30;100764.22;4995117;28;20068;-78
2022/04/21 09:06:03;;;;;;;22.77;8.20;;;;;;;12.44;45.94;100760.56;4994902;28;20106;-78
2022/04/21 09:08:31;;;;;;;14.57;7.10;;;;;;;12.15;46.60;100768.19;4996765;28;20150;-78
2022/04/21 09:11:09;;;;;;;21.63;8.45;;;;;;;12.35;46.58;100767.84;4995702;28;20046;-78
2022/04/21 09:13:41;;;;;;;18.83;8.05;;;;;;;12.81;45.49;100768.91;4993217;28;20155;-78
2022/04/21 09:16:12;;;;;;;18.75;7.90;;;;;;;13.05;44.73;100764.44;4994941;28;20066;-78
2022/04/21 09:18:43;;;;;;;;;;;;;;;13.00;44.90;100764.94;4995979;28;20133;-78
2022/04/21 09:21:16;;;;;;;18.60;7.68;;;;;;;13.04;44.88;100758.22;4995031;28;20350;-78
2022/04/21 09:23:44;;;;;;;21.85;8.48;;;;;;;13.04;45.04;100757.34;4995054;28;20070;-78
2022/04/21 09:26:16;;;;;;;20.27;7.70;;;;;;;12.88;45.63;100756.44;4994010;28;20047;-80
2022/04/21 09:28:57;;;;;;;20.52;8.15;;;;;;;12.45;46.63;100770.31;4995969;28;20129;-78
2022/04/21 09:31:26;;;;;;;17.95;8.73;;;;;;;13.61;44.02;100750.81;4993388;28;20121;-79
2022/04/21 09:33:55;;;;;;;20.58;7.53;;;;;;;13.05;44.90;100759.06;4994133;28;20078;-78
2022/04/21 09:36:21;;;;;;;19.17;7.55;;;;;;;13.75;43.60;100758.13;4994770;28;20101;-78
2022/04/21 09:39:05;;;;;;;22.10;8.38;;;;;;;12.91;45.11;100759.81;4995531;28;20066;-79
2022/04/21 09:41:31;;;;;;;17.83;8.02;;;;;;;12.48;46.70;100772.66;4995625;28;20070;-78
2022/04/21 09:46:07;;;;;;;21.60;8.85;;;;;;;11.97;47.66;100772.91;4996439;28;20097;-78
2022/04/21 09:47:05;;;;;;;20.77;8.50;;;;;;;12.82;45.91;100772.44;5002690;28;20136;-78
2022/04/21 09:49:41;;;;;;;20.95;8.27;;;;;;;13.22;44.64;100779.50;5008318;28;20491;-78
2022/04/21 09:52:08;;;;;;;23.42;8.80;;;;;;;11.96;47.83;100775.75;4995357;28;20117;-78
2022/04/21 09:54:34;;;;;;;19.80;8.65;;;;;;;12.21;47.42;100785.50;4972214;28;20435;-78
2022/04/21 09:57:03;;;;;;;13.55;7.90;;;;;;;12.79;45.81;100779.00;4999898;28;20055;-81
2022/04/21 09:59:35;;;;;;;18.13;8.90;;;;;;;12.84;45.57;100776.66;5026975;28;20033;-80
2022/04/21 10:02:03;;;;;;;26.67;8.98;;;;;;;12.72;46.10;100777.97;5009195;28;20041;-80
2022/04/21 10:04:30;;;;;;;24.67;9.18;;;;;;;13.02;45.14;100772.88;5007229;28;20078;-80
2022/04/21 10:07:01;;;;;;;19.60;9.02;;;;;;;13.26;44.47;100775.44;5004028;28;20050;-81
2022/04/21 10:09:28;;;;;;;16.73;9.82;;;;;;;13.55;43.59;100774.75;5002600;28;20056;-80
2022/04/21 10:11:59;;;;;;;21.45;8.90;;;;;;;13.78;43.07;100780.19;5002468;28;20050;-79
2022/04/21 10:14:27;;;;;;;;;;;;;;;13.29;44.35;100780.47;5003930;28;20050;-79
2022/04/21 10:16:53;;;;;;;18.52;11.43;;;;;;;13.21;44.38;100777.81;5002085;28;19937;-79
2022/04/21 10:19:21;;;;;;;23.58;12.90;;;;;;;12.48;46.07;100778.06;5001794;28;20057;-79
2022/04/21 10:21:52;;;;;;;26.70;12.82;;;;;;;12.68;45.89;100779.34;5000106;28;20043;-79
2022/04/21 10:24:29;;;;;;;22.92;12.02;;;;;;;12.70;45.62;100779.19;4999640;28;20048;-79
2022/04/21 10:26:56;;;;;;;20.63;11.23;;;;;;;12.80;45.55;100777.16;5004500;28;20076;-79
2022/04/21 10:29:27;;;;;;;18.33;10.38;;;;;;;13.22;44.45;100781.38;5018469;28;20054;-79
2022/04/21 10:32:07;;;;;;;23.45;10.73;;;;;;;12.98;45.02;100782.31;5000903;28;20074;-79
2022/04/21 10:34:43;;;;;;;23.25;10.05;;;;;;;12.80;45.51;100778.00;4996497;28;20524;-78
2022/04/21 10:37:15;;;;;;;18.50;11.05;;;;;;;12.50;46.22;100784.13;5027241;28;20030;-78
2022/04/21 10:40:06;;;;;;;23.25;11.63;;;;;;;13.46;44.20;100786.63;5025841;28;20494;-78
2022/04/21 10:43:03;;;;;;;21.05;11.65;;;;;;;12.59;45.99;100788.44;5025795;28;20053;-78
2022/04/21 10:45:31;;;;;;;26.15;12.85;;;;;;;12.27;46.71;100778.59;5026778;28;20042;-78
2022/04/21 10:48:09;;;;;;;29.83;13.57;;;;;;;12.35;46.59;100786.66;5027025;28;20046;-78
2022/04/21 10:50:37;;;;;;;18.92;11.38;;;;;;;12.94;45.43;100778.28;5027670;28;20042;-78
2022/04/21 10:58:35;;;;;;;30.75;12.60;;;;;;;12.44;46.22;100782.09;5026548;28;20106;-78
2022/04/21 11:01:15;;;;;;;24.92;12.52;;;;;;;12.71;45.71;100783.56;5030017;28;20077;-78
2022/04/21 11:03:45;;;;;;;28.90;13.25;;;;;;;13.11;44.95;100771.81;5029780;28;20075;-78
2022/04/21 11:06:12;;;;;;;26.38;12.35;;;;;;;13.74;43.50;100778.84;5030588;28;20046;-79
2022/04/21 11:08:40;;;;;;;27.02;13.23;;;;;;;13.48;43.90;100778.34;5029550;28;20069;-78
2022/04/21 11:11:07;;;;;;;29.95;11.82;;;;;;;12.78;45.09;100787.25;5022096;28;20113;-79
2022/04/21 11:13:49;;;;;;;22.60;11.75;;;;;;;13.45;43.89;100784.09;5027123;28;20050;-78
2022/04/21 11:16:55;;;;;;;25.42;11.57;;;;;;;12.60;45.73;100779.38;5029950;28;20056;-78
2022/04/21 11:19:28;;;;;;;20.45;11.45;;;;;;;12.93;45.22;100779.28;5028810;28;20036;-79
2022/04/21 11:22:10;;;;;;;23.30;11.25;;;;;;;13.48;44.09;100775.66;5033833;28;20041;-76
2022/04/21 11:25:06;;;;;;;18.38;10.95;;;;;;;14.00;43.05;100764.19;5010057;28;20046;-75
2022/04/21 11:27:39;;;;;;;24.08;11.52;;;;;;;14.18;42.09;100767.38;5011642;28;20474;-75
2022/04/21 11:30:09;;;;;;;20.27;9.55;;;;;;;14.23;42.24;100769.56;5010352;28;20082;-75
2022/04/21 11:32:36;;;;;;;19.40;9.32;;;;;;;13.94;42.55;100771.16;5011665;28;20486;-75
2022/04/21 11:35:07;;;;;;;18.83;9.40;;;;;;;13.57;43.77;100769.22;5011819;28;20120;-75
2022/04/21 11:37:44;;;;;;;19.38;10.23;;;;;;;13.87;43.16;100774.75;5012169;28;20045;-74
2022/04/21 11:40:25;;;;;;;17.52;10.23;;;;;;;13.18;44.49;100770.13;5012870;28;20136;-74
2022/04/21 11:42:53;;;;;;;15.95;8.05;;;;;;;13.14;44.75;100768.75;5014091;28;20129;-74
2022/04/21 11:45:23;;;;;;;15.60;9.45;;;;;;;13.54;44.06;100766.88;5013945;28;20224;-74
2022/04/21 11:47:50;;;;;;;21.95;10.07;;;;;;;13.46;44.10;100758.84;5014527;28;20113;-74
2022/04/21 11:50:25;;;;;;;17.67;9.73;;;;;;;13.81;43.42;100757.44;5013815;28;20077;-74
2022/04/21 11:52:53;;;;;;;15.60;8.88;;;;;;;14.16;42.56;100757.81;5015150;28;20491;-75
2022/04/21 11:55:21;;;;;;;16.35;8.20;;;;;;;14.21;42.40;100760.78;5013245;28;20073;-75
2022/04/21 11:57:49;;;;;;;13.05;8.05;;;;;;;13.92;43.00;100754.31;5014290;28;20134;-75
2022/04/21 12:00:17;;;;;;;17.70;8.32;;;;;;;14.01;42.91;100757.75;5015526;28;20092;-75
2022/04/21 12:08:14;;;;;;;14.00;8.32;;;;;;;14.51;41.68;100759.81;5013714;28;20061;-75
2022/04/21 12:10:41;;;;;;;12.63;7.15;;;;;;;13.49;43.96;100758.47;5013259;28;20083;-74
2022/04/21 12:13:08;;;;;;;14.85;7.75;;;;;;;13.72;43.77;100759.31;5014563;28;20548;-75